Time;durP1;ratioP1;P1;durP2;ratioP2;P2;SDS_P1;SDS_P2;PMS_P1;PMS_P2;Temp;Humidity;BMP_temperature;BMP_pressure;BME280_temperature;BME280_humidity;BME280_pressure;Samples;Min_cycle;Max_cycle;Signal;HPM_P1;HPM_P2
2022/12/05 00:00:27;;;;;;;;;28.75;16.25;;;;;4.53;76.13;101339.69;5018242;28;45319;-87
2022/12/05 00:02:55;;;;;;;;;21.00;13.75;;;;;4.51;76.43;101336.19;5018426;28;45462;-87
2022/12/05 00:05:20;;;;;;;;;20.25;15.00;;;;;4.52;76.59;101337.09;5018492;28;46352;-87
2022/12/05 00:07:46;;;;;;;;;20.00;17.00;;;;;4.53;76.62;101342.25;5017749;28;53351;-88
2022/12/05 00:10:22;;;;;;;;;;;;;;;;;;;;;
2022/12/05 00:12:47;;;;;;;;;23.00;17.50;;;;;4.45;76.12;101349.06;5016903;28;69887;-88
2022/12/05 00:15:13;;;;;;;;;21.50;19.25;;;;;4.40;75.85;101353.31;5035823;28;46672;-87
2022/12/05 00:17:39;;;;;;;;;23.50;20.00;;;;;4.38;76.01;101355.91;5001707;28;45389;-88
2022/12/05 00:20:06;;;;;;;;;22.00;13.75;;;;;4.35;76.41;101355.88;5018342;28;45456;-88
2022/12/05 00:22:34;;;;;;;;;29.25;18.75;;;;;4.36;76.68;101357.59;5035690;28;45619;-88
2022/12/05 00:24:59;;;;;;;;;20.75;15.00;;;;;4.37;76.83;101359.34;5018067;28;47171;-88
2022/12/05 00:27:25;;;;;;;;;21.25;16.25;;;;;4.37;76.38;101351.59;5000963;28;61648;-87
2022/12/05 00:29:50;;;;;;;;;21.50;16.00;;;;;4.37;76.15;101358.47;5017731;28;54575;-87
2022/12/05 00:32:18;;;;;;;;;17.75;14.75;;;;;4.31;76.21;101359.31;5035125;28;62631;-88
2022/12/05 00:34:43;;;;;;;;;21.75;13.75;;;;;4.29;76.25;101360.13;5017855;28;48474;-88
2022/12/05 00:37:08;;;;;;;;;27.00;17.00;;;;;4.30;76.46;101365.28;5001081;28;46144;-87
2022/12/05 00:39:36;;;;;;;;;24.25;16.25;;;;;4.30;76.60;101370.44;5018000;28;50169;-88
2022/12/05 00:42:01;;;;;;;;;28.75;19.25;;;;;4.34;76.43;101366.19;5001794;28;45256;-88
2022/12/05 00:44:27;;;;;;;;;26.25;20.75;;;;;4.30;76.07;101362.72;5000983;28;53993;-88
2022/12/05 00:46:52;;;;;;;;;29.75;19.00;;;;;4.27;76.10;101362.69;5017531;28;51420;-88
2022/12/05 00:49:17;;;;;;;;;24.75;18.25;;;;;4.23;76.04;101363.53;5001281;28;55105;-88
2022/12/05 00:51:43;;;;;;;;;19.50;16.00;;;;;4.20;76.17;101363.53;5017893;28;45413;-88
2022/12/05 00:54:11;;;;;;;;;23.00;17.00;;;;;4.18;76.89;101366.06;5018085;28;46613;-88
2022/12/05 00:56:37;;;;;;;;;24.75;16.25;;;;;4.19;76.71;101364.34;5017962;28;45806;-88
2022/12/05 00:59:03;;;;;;;;;22.75;16.25;;;;;4.19;76.38;101362.63;5041632;28;45355;-88
2022/12/05 01:01:34;;;;;;;;;26.75;22.75;;;;;4.21;76.88;101363.50;5022477;28;45473;-87
2022/12/05 01:04:04;;;;;;;;;23.25;18.50;;;;;4.22;77.00;101367.81;5017913;28;45494;-88
2022/12/05 01:06:32;;;;;;;;;24.50;18.50;;;;;4.22;76.45;101366.97;5025614;28;45253;-88
2022/12/05 01:08:58;;;;;;;;;27.75;24.75;;;;;4.20;76.65;101364.38;4981577;28;45383;-87
2022/12/05 01:11:24;;;;;;;;;28.50;19.75;;;;;4.20;76.58;101369.53;5015303;28;45397;-88
2022/12/05 01:13:49;;;;;;;;;16.75;15.50;;;;;4.21;76.60;101365.22;5000850;28;47177;-87
2022/12/05 01:16:19;;;;;;;;;22.00;13.50;;;;;4.23;77.08;101368.66;5008074;28;45393;-87
2022/12/05 01:18:44;;;;;;;;;20.75;15.50;;;;;4.28;77.13;101374.72;5000943;28;45331;-87
2022/12/05 01:21:10;;;;;;;;;19.00;17.75;;;;;4.35;77.22;101380.81;5001028;28;45391;-87
2022/12/05 01:23:36;;;;;;;;;22.50;17.00;;;;;4.40;77.44;101389.41;4984461;28;48284;-88
2022/12/05 01:26:05;;;;;;;;;28.75;17.00;;;;;4.42;76.54;101388.59;5000843;28;48493;-88
2022/12/05 01:28:31;;;;;;;;;22.25;18.50;;;;;4.44;76.81;101384.31;4998448;28;45364;-88
2022/12/05 01:30:56;;;;;;;;;34.75;19.75;;;;;4.45;77.13;101393.75;4985512;28;45375;-88
2022/12/05 01:33:21;;;;;;;;;27.50;21.00;;;;;4.45;76.98;101395.47;5000954;28;46383;-88
2022/12/05 01:35:49;;;;;;;;;24.50;16.75;;;;;4.45;76.34;101400.63;5015105;28;45278;-88
2022/12/05 01:38:14;;;;;;;;;28.75;18.50;;;;;4.45;76.77;101403.19;5001490;28;45329;-88
2022/12/05 01:40:40;;;;;;;;;30.25;18.75;;;;;4.45;76.72;101398.03;5016662;28;45344;-88
2022/12/05 01:43:16;;;;;;;;;23.50;18.75;;;;;4.47;76.98;101404.91;5038255;28;46090;-88
2022/12/05 01:45:47;;;;;;;;;24.00;16.75;;;;;4.49;77.01;101411.81;5037326;28;45334;-88
2022/12/05 01:48:38;;;;;;;;;26.00;16.25;;;;;4.51;76.82;101420.44;5038606;28;45483;-88
2022/12/05 01:51:08;;;;;;;;;20.75;12.75;;;;;4.49;76.65;101422.13;5038757;28;45345;-88
2022/12/05 01:53:33;;;;;;;;;32.25;19.00;;;;;4.51;77.05;101428.16;5038182;28;46062;-88
2022/12/05 01:55:58;;;;;;;;;25.50;17.50;;;;;4.53;77.07;101427.34;5003298;28;65961;-88
2022/12/05 01:58:27;;;;;;;;;24.00;18.25;;;;;4.54;77.27;101434.19;5020121;28;59216;-88
2022/12/05 02:00:53;;;;;;;;;29.75;20.75;;;;;4.53;76.65;101436.75;5003994;28;45294;-88
2022/12/05 02:03:19;;;;;;;;;17.25;16.25;;;;;4.49;76.54;101435.88;5018905;28;71380;-88
2022/12/05 02:05:47;;;;;;;;;29.25;19.25;;;;;4.44;76.35;101448.75;5020052;28;45370;-88
2022/12/05 02:08:12;;;;;;;;;20.75;16.50;;;;;4.44;77.17;101450.47;5038604;28;45262;-87
2022/12/05 02:10:41;;;;;;;;;27.25;18.25;;;;;4.46;76.63;101444.47;5020503;28;45442;-88
2022/12/05 02:13:17;;;;;;;;;23.50;17.25;;;;;4.47;76.92;101438.44;5003503;28;47075;-89
2022/12/05 02:15:49;;;;;;;;;29.00;19.75;;;;;4.47;76.89;101441.00;5020464;28;45338;-88
2022/12/05 02:18:32;;;;;;;;;30.50;21.75;;;;;4.48;76.98;101447.06;5019871;28;45374;-86
2022/12/05 02:21:35;;;;;;;;;27.50;21.50;;;;;4.49;77.17;101441.03;5019947;28;45602;-87
2022/12/05 02:24:20;;;;;;;;;32.25;23.75;;;;;4.49;76.74;101440.19;5036607;28;46159;-87
2022/12/05 02:26:59;;;;;;;;;25.25;16.00;;;;;4.49;76.82;101450.50;5020085;28;45900;-87
2022/12/05 02:29:46;;;;;;;;;30.25;21.75;;;;;4.50;77.21;101445.34;5019803;28;45401;-88
2022/12/05 02:32:33;;;;;;;;;27.00;21.75;;;;;4.51;77.30;101441.91;5019478;28;45591;-87
2022/12/05 02:35:04;;;;;;;;;43.00;20.75;;;;;4.52;76.74;101442.78;5037386;28;46330;-88
2022/12/05 02:37:42;;;;;;;;;30.00;22.00;;;;;4.50;76.62;101449.66;5037484;28;45365;-87
2022/12/05 02:40:10;;;;;;;;;36.50;22.00;;;;;4.49;77.01;101451.34;5019489;28;45354;-87
2022/12/05 02:42:41;;;;;;;;;32.00;19.75;;;;;4.48;76.85;101449.63;5035923;28;45302;-87
2022/12/05 02:45:09;;;;;;;;;28.50;18.75;;;;;4.49;77.15;101440.19;5019202;28;46296;-87
2022/12/05 02:47:39;;;;;;;;;27.50;23.25;;;;;4.49;76.98;101445.34;5019097;28;45921;-88
2022/12/05 02:50:07;;;;;;;;;29.00;20.00;;;;;4.47;76.98;101446.16;5019539;28;45741;-87
2022/12/05 02:52:33;;;;;;;;;30.00;18.00;;;;;4.46;76.89;101443.59;5019372;28;45413;-87
2022/12/05 02:54:59;;;;;;;;;30.50;16.50;;;;;4.45;76.96;101436.72;5019426;28;46504;-87
2022/12/05 02:57:24;;;;;;;;;28.25;16.25;;;;;4.46;77.13;101434.16;5018596;28;62852;-87
2022/12/05 02:59:50;;;;;;;;;32.50;19.00;;;;;4.44;77.19;101446.16;5036860;28;51397;-88
2022/12/05 03:02:42;;;;;;;;;31.00;22.00;;;;;4.40;76.91;101446.13;5019152;28;45329;-88
2022/12/05 03:05:28;;;;;;;;;33.00;25.75;;;;;4.40;77.07;101452.16;4993843;28;75834;-88
2022/12/05 03:07:56;;;;;;;;;16.50;8.25;;;;;4.37;76.48;101451.28;4999660;28;45998;-88
2022/12/05 03:10:24;;;;;;;;;25.25;16.00;;;;;4.30;76.56;101449.50;4982571;28;61464;-88
2022/12/05 03:12:54;;;;;;;;;34.00;25.75;;;;;4.28;76.67;101448.63;4999527;28;45310;-88
2022/12/05 03:15:37;;;;;;;;;33.25;21.50;;;;;4.21;76.66;101445.97;4999457;28;46345;-88
2022/12/05 03:18:10;;;;;;;;;43.75;26.25;;;;;4.18;77.43;101447.66;4999372;28;45979;-88
2022/12/05 03:20:46;;;;;;;;;34.25;22.50;;;;;4.20;77.50;101446.84;4999416;28;45315;-88
2022/12/05 03:23:18;;;;;;;;;28.75;21.75;;;;;4.18;76.75;101447.66;4999154;28;45452;-88
2022/12/05 03:25:58;;;;;;;;;30.25;22.25;;;;;4.15;77.24;101447.66;4999277;28;45717;-88
2022/12/05 03:28:33;;;;;;;;;41.00;18.50;;;;;4.14;77.74;101457.09;4983497;28;45899;-88
2022/12/05 03:31:03;;;;;;;;;40.50;24.50;;;;;4.15;77.66;101458.81;4999408;28;45318;-88
2022/12/05 03:33:33;;;;;;;;;37.00;23.25;;;;;4.18;77.56;101464.00;4983275;28;45469;-89
2022/12/05 03:36:12;;;;;;;;;39.00;25.50;;;;;4.16;77.26;101460.56;4981863;28;47203;-88
2022/12/05 03:38:59;;;;;;;;;36.00;20.00;;;;;4.14;77.33;101461.38;4999149;28;45998;-88
2022/12/05 03:41:33;;;;;;;;;35.50;25.50;;;;;4.12;77.45;101463.91;5009253;28;45278;-88
2022/12/05 03:44:12;;;;;;;;;33.25;20.25;;;;;4.11;77.43;101474.25;5018822;28;45452;-88
2022/12/05 03:46:39;;;;;;;;;34.00;22.50;;;;;4.09;77.24;101469.06;5018380;28;47037;-88
2022/12/05 03:49:12;;;;;;;;;30.50;20.25;;;;;4.04;77.11;101474.16;5018766;28;45371;-88
2022/12/05 03:51:47;;;;;;;;;34.50;23.00;;;;;4.02;77.72;101473.28;5018883;28;45436;-88
2022/12/05 03:54:29;;;;;;;;;43.50;20.75;;;;;3.98;77.28;101476.69;5019168;28;45615;-88
2022/12/05 03:57:08;;;;;;;;;39.25;22.50;;;;;3.96;77.25;101475.81;5002495;28;47234;-88
2022/12/05 03:59:41;;;;;;;;;38.25;23.25;;;;;3.96;77.66;101478.38;5002189;28;45890;-88
2022/12/05 04:02:13;;;;;;;;;40.25;29.50;;;;;3.97;77.54;101469.78;5018672;28;45449;-88
2022/12/05 04:04:50;;;;;;;;;24.00;19.25;;;;;3.99;77.99;101478.44;5018651;28;45369;-88
2022/12/05 04:07:26;;;;;;;;;25.75;20.75;;;;;4.02;77.50;101477.59;5018933;28;46270;-88
2022/12/05 04:09:55;;;;;;;;;28.00;24.25;;;;;4.03;77.71;101479.28;5003379;28;45970;-88
2022/12/05 04:12:24;;;;;;;;;38.00;26.25;;;;;4.00;77.75;101479.28;5002325;28;45470;-88
2022/12/05 04:14:51;;;;;;;;;33.50;21.00;;;;;4.01;78.01;101489.59;5018460;28;45632;-88
2022/12/05 04:17:32;;;;;;;;;36.25;21.75;;;;;4.02;78.15;101483.59;5034961;28;47269;-89
2022/12/05 04:23:13;;;;;;;;;38.00;23.25;;;;;4.03;77.96;101492.16;5021394;28;45342;-88
2022/12/05 04:25:54;;;;;;;;;30.25;24.50;;;;;4.02;77.77;101491.31;5001165;28;65822;-88
2022/12/05 04:28:45;;;;;;;;;38.25;23.75;;;;;4.08;78.15;101493.09;5035813;28;45743;-88
2022/12/05 04:31:22;;;;;;;;;29.50;22.00;;;;;4.11;77.95;101495.72;5036293;28;45930;-88
2022/12/05 04:33:54;;;;;;;;;29.50;25.00;;;;;4.12;78.11;101492.25;5001952;28;45300;-88
2022/12/05 04:36:24;;;;;;;;;30.75;22.00;;;;;4.13;77.45;101495.72;5018482;28;45317;-89
2022/12/05 04:39:04;;;;;;;;;39.00;17.75;;;;;4.10;77.66;101490.53;5001816;28;47200;-88
2022/12/05 04:41:36;;;;;;;;;22.50;15.75;;;;;4.07;77.47;101494.81;5018132;28;45843;-88
2022/12/05 04:44:06;;;;;;;;;19.75;13.50;;;;;4.06;77.70;101490.50;5017917;28;45487;-88
2022/12/05 04:46:32;;;;;;;;;26.75;23.00;;;;;4.05;78.10;101495.66;5001688;28;45443;-88
2022/12/05 04:49:09;;;;;;;;;34.50;22.00;;;;;4.02;77.71;101501.63;5020844;28;67608;-88
2022/12/05 04:51:39;;;;;;;;;25.50;18.75;;;;;4.02;77.71;101503.34;5022833;28;45412;-88
2022/12/05 04:54:16;;;;;;;;;41.00;22.00;;;;;4.04;78.00;101507.66;5022133;28;45528;-88
2022/12/05 04:56:43;;;;;;;;;26.50;19.50;;;;;4.05;77.99;101511.97;5021810;28;45303;-88
2022/12/05 04:59:09;;;;;;;;;23.25;19.00;;;;;4.02;77.65;101513.66;5020534;28;68764;-88
2022/12/05 05:01:43;;;;;;;;;24.00;17.75;;;;;4.02;78.09;101516.22;5004025;28;67189;-88
2022/12/05 05:04:09;;;;;;;;;30.25;22.50;;;;;4.01;77.71;101522.22;5004985;28;45508;-88
2022/12/05 05:06:39;;;;;;;;;26.50;20.25;;;;;3.98;77.46;101517.91;5037993;28;45375;-88
2022/12/05 05:09:04;;;;;;;;;37.00;22.25;;;;;3.95;77.80;101519.56;5021400;28;46717;-87
2022/12/05 05:11:34;;;;;;;;;26.00;19.75;;;;;3.92;77.83;101520.41;5021074;28;45533;-89
2022/12/05 05:14:00;;;;;;;;;23.00;20.50;;;;;3.90;78.14;101519.53;5021446;28;45330;-88
2022/12/05 05:16:38;;;;;;;;;23.00;20.50;;;;;3.91;77.89;101517.81;5037540;28;45573;-88
2022/12/05 05:19:07;;;;;;;;;30.25;18.25;;;;;3.90;77.90;101518.66;4996296;28;47012;-88
2022/12/05 05:21:44;;;;;;;;;31.00;23.50;;;;;3.91;77.75;101521.25;5038624;28;46059;-88
2022/12/05 05:24:12;;;;;;;;;28.50;18.25;;;;;3.89;77.77;101517.81;5021687;28;45376;-87
2022/12/05 05:26:40;;;;;;;;;29.50;26.00;;;;;3.88;78.05;101518.63;5020995;28;45465;-88
2022/12/05 05:29:06;;;;;;;;;29.75;19.25;;;;;3.87;77.60;101519.50;5004280;28;47255;-88
2022/12/05 05:31:31;;;;;;;;;26.75;17.00;;;;;3.83;78.15;101526.31;5020975;28;45337;-88
2022/12/05 05:33:57;;;;;;;;;28.25;21.00;;;;;3.79;78.02;101524.56;5038606;28;45408;-88
2022/12/05 05:36:27;;;;;;;;;31.50;21.75;;;;;3.77;78.49;101526.25;5020226;28;65984;-88
2022/12/05 05:38:57;;;;;;;;;25.25;24.00;;;;;3.78;78.46;101522.81;5021327;28;46469;-88
2022/12/05 05:41:29;;;;;;;;;34.50;24.50;;;;;3.79;78.14;101533.97;5020656;28;45441;-88
2022/12/05 05:43:56;;;;;;;;;32.00;19.50;;;;;3.78;78.20;101533.13;5020551;28;45355;-88
2022/12/05 05:46:26;;;;;;;;;27.00;19.00;;;;;3.79;78.44;101533.97;5020868;28;45456;-88
2022/12/05 05:48:54;;;;;;;;;35.00;19.25;;;;;3.83;78.40;101539.19;5038178;28;46524;-87
2022/12/05 05:51:20;;;;;;;;;34.00;25.50;;;;;3.84;78.42;101540.06;5004405;28;45534;-88
2022/12/05 05:53:46;;;;;;;;;26.00;22.50;;;;;3.84;78.52;101548.63;5004082;28;45398;-88
2022/12/05 05:56:14;;;;;;;;;39.75;26.50;;;;;3.85;78.75;101550.38;5003567;28;45408;-88
2022/12/05 05:58:42;;;;;;;;;27.50;20.75;;;;;3.87;78.56;101547.84;5019418;28;47230;-88
2022/12/05 06:01:11;;;;;;;;;35.00;21.00;;;;;3.89;78.41;101543.56;5020675;28;45940;-87
2022/12/05 06:03:38;;;;;;;;;23.75;18.00;;;;;3.95;78.61;101558.22;5038377;28;45263;-88
2022/12/05 06:06:06;;;;;;;;;34.25;22.25;;;;;3.96;78.25;101553.09;5020645;28;45468;-88
2022/12/05 06:08:37;;;;;;;;;28.00;18.25;;;;;3.96;78.30;101562.53;5020350;28;47225;-88
2022/12/05 06:11:08;;;;;;;;;28.25;19.00;;;;;3.92;78.18;101561.63;5003722;28;45409;-88
2022/12/05 06:13:36;;;;;;;;;28.50;19.00;;;;;3.91;77.83;101564.19;5020312;28;45419;-88
2022/12/05 06:16:04;;;;;;;;;22.00;18.00;;;;;3.87;77.90;101555.56;5020496;28;45303;-88
2022/12/05 06:18:30;;;;;;;;;26.25;20.00;;;;;3.87;78.14;101561.56;5037827;28;46172;-88
2022/12/05 06:20:56;;;;;;;;;29.00;16.25;;;;;3.93;78.49;101567.66;5002953;28;68089;-88
2022/12/05 06:23:25;;;;;;;;;28.00;20.25;;;;;3.93;77.92;101570.22;5020198;28;45370;-88
2022/12/05 06:26:00;;;;;;;;;30.75;21.25;;;;;3.94;77.85;101570.25;5019800;28;45307;-88
2022/12/05 06:28:25;;;;;;;;;29.00;17.25;;;;;3.91;78.39;101574.50;5021407;28;46390;-88
2022/12/05 06:30:51;;;;;;;;;31.25;20.00;;;;;3.88;77.74;101570.16;5019406;28;61750;-88
2022/12/05 06:33:17;;;;;;;;;30.00;21.75;;;;;3.86;78.51;101579.56;5003776;28;45438;-88
2022/12/05 06:35:44;;;;;;;;;27.00;18.50;;;;;3.85;77.97;101580.44;5020236;28;45308;-88
2022/12/05 06:38:12;;;;;;;;;31.50;14.50;;;;;3.85;77.63;101585.59;5003467;28;47344;-88
2022/12/05 06:40:44;;;;;;;;;30.00;21.00;;;;;3.84;78.04;101594.16;5002822;28;45426;-88
2022/12/05 06:43:12;;;;;;;;;30.00;20.25;;;;;3.83;78.21;101595.88;5020239;28;45404;-88
2022/12/05 06:45:40;;;;;;;;;30.75;22.00;;;;;3.84;78.43;101597.56;5020439;28;45572;-88
2022/12/05 06:48:15;;;;;;;;;;;;;;;;;;;;;
2022/12/05 06:50:50;;;;;;;;;28.50;19.50;;;;;3.83;77.74;101605.31;5020311;28;72947;-88
2022/12/05 06:53:15;;;;;;;;;25.75;20.75;;;;;3.80;78.63;101603.53;5019421;28;45227;-88
2022/12/05 06:55:41;;;;;;;;;35.75;20.50;;;;;3.83;78.27;101611.31;5019851;28;45589;-89
2022/12/05 06:58:08;;;;;;;;;30.50;18.75;;;;;3.80;77.67;101602.69;5018861;28;69224;-88
2022/12/05 07:03:28;;;;;;;;;37.00;23.00;;;;;3.82;77.90;101606.13;4982790;28;45348;-88
2022/12/05 07:05:53;;;;;;;;;25.50;18.75;;;;;3.80;78.03;101610.41;4994717;28;61588;-88
2022/12/05 07:08:19;;;;;;;;;34.50;22.00;;;;;3.80;78.01;101611.25;4994175;28;69104;-87
2022/12/05 07:10:50;;;;;;;;;25.50;18.00;;;;;3.81;78.08;101617.31;4977880;28;66761;-87
2022/12/05 07:13:15;;;;;;;;;31.25;15.50;;;;;3.82;78.35;101622.44;4978396;28;45491;-87
2022/12/05 07:15:40;;;;;;;;;28.75;23.50;;;;;3.84;78.04;101619.91;4994720;28;56618;-88
2022/12/05 07:18:06;;;;;;;;;27.25;21.50;;;;;3.82;78.19;101629.31;4994656;28;52336;-87
2022/12/05 07:20:31;;;;;;;;;32.25;24.00;;;;;3.78;78.33;101630.13;4995065;28;45447;-87
2022/12/05 07:22:56;;;;;;;;;31.75;23.00;;;;;3.75;77.85;101630.97;4995438;28;45572;-86
2022/12/05 07:25:23;;;;;;;;;24.00;21.25;;;;;3.74;77.80;101634.38;4994792;28;58578;-88
2022/12/05 07:27:49;;;;;;;;;39.50;25.50;;;;;3.74;78.04;101636.94;4979158;28;46885;-89
2022/12/05 07:30:14;;;;;;;;;32.25;24.75;;;;;3.73;78.42;101645.50;4995683;28;45337;-87
2022/12/05 07:32:39;;;;;;;;;39.25;23.25;;;;;3.73;78.64;101639.50;4978753;28;45554;-88
2022/12/05 07:35:05;;;;;;;;;30.25;22.00;;;;;3.73;78.25;101642.06;4978306;28;52886;-87
2022/12/05 07:37:30;;;;;;;;;37.75;25.00;;;;;3.73;78.19;101642.06;4994450;28;46072;-88
2022/12/05 07:39:55;;;;;;;;;39.25;22.25;;;;;3.69;77.78;101652.31;5008316;28;63091;-87
2022/12/05 07:42:21;;;;;;;;;35.00;24.75;;;;;3.66;77.61;101654.00;5033887;28;58102;-87
2022/12/05 07:44:46;;;;;;;;;31.25;24.50;;;;;3.66;78.36;101654.00;5006699;28;57676;-89
2022/12/05 07:47:11;;;;;;;;;25.50;21.25;;;;;3.65;77.92;101652.28;5007760;28;45491;-89
2022/12/05 07:49:37;;;;;;;;;32.75;16.00;;;;;3.64;78.37;101656.56;5018160;28;60826;-88
2022/12/05 07:52:02;;;;;;;;;33.50;24.00;;;;;3.64;78.54;101650.53;5034921;28;51628;-88
2022/12/05 07:54:28;;;;;;;;;39.75;24.50;;;;;3.67;78.46;101660.88;5018896;28;45420;-89
2022/12/05 07:56:53;;;;;;;;;36.25;23.00;;;;;3.69;78.32;101664.34;5018430;28;54065;-87
2022/12/05 07:59:18;;;;;;;;;39.50;22.25;;;;;3.69;78.03;101661.75;5019204;28;48863;-90
2022/12/05 08:01:44;;;;;;;;;26.50;15.50;;;;;3.67;78.17;101666.03;5019471;28;45322;-91
2022/12/05 08:04:09;;;;;;;;;31.00;19.00;;;;;3.65;78.43;101671.16;4995646;28;45429;-88
2022/12/05 08:06:35;;;;;;;;;33.00;20.75;;;;;3.66;78.72;101672.91;5023285;28;60710;-89
2022/12/05 08:09:00;;;;;;;;;30.00;22.50;;;;;3.69;78.84;101679.78;4999272;28;59614;-89
2022/12/05 08:11:31;;;;;;;;;42.50;23.00;;;;;3.73;78.50;101676.41;5025634;28;45493;-89
2022/12/05 08:13:57;;;;;;;;;42.50;27.50;;;;;3.72;78.41;101686.72;5026026;28;45529;-89
2022/12/05 08:16:25;;;;;;;;;25.50;19.00;;;;;3.68;78.37;101696.97;5039396;28;46987;-88
2022/12/05 08:19:02;;;;;;;;;23.75;18.25;;;;;3.69;78.46;101692.66;5023400;28;45910;-88
2022/12/05 08:21:28;;;;;;;;;29.50;20.50;;;;;3.69;78.83;101693.53;5031485;28;45289;-88
2022/12/05 08:23:54;;;;;;;;;37.75;21.75;;;;;3.74;79.00;101700.47;5016339;28;45457;-88
2022/12/05 08:26:27;;;;;;;;;42.75;27.50;;;;;3.73;78.53;101709.03;4999963;28;47051;-88
2022/12/05 08:28:55;;;;;;;;;30.00;22.75;;;;;3.69;78.46;101702.97;4999834;28;45772;-87
2022/12/05 08:31:23;;;;;;;;;34.50;25.50;;;;;3.69;78.77;101705.53;5011464;28;45616;-87
2022/12/05 08:33:48;;;;;;;;;33.50;23.00;;;;;3.67;78.23;101700.34;5035682;28;45632;-87
2022/12/05 08:36:14;;;;;;;;;42.25;27.00;;;;;3.67;78.55;101699.50;5016899;28;45618;-86
2022/12/05 08:38:41;;;;;;;;;42.25;27.00;;;;;3.71;78.79;101701.28;5016249;28;45488;-86
2022/12/05 08:41:09;;;;;;;;;32.50;26.25;;;;;3.73;78.67;101701.31;5022302;28;45405;-86
2022/12/05 08:43:34;;;;;;;;;36.00;26.50;;;;;3.68;78.51;101698.69;5013787;28;45552;-85
2022/12/05 08:46:00;;;;;;;;;31.25;24.25;;;;;3.65;78.50;101702.06;5004993;28;47196;-86
2022/12/05 08:48:27;;;;;;;;;39.25;23.50;;;;;3.67;78.91;101707.22;5025328;28;47017;-87
2022/12/05 08:50:53;;;;;;;;;33.25;27.00;;;;;3.69;78.70;101705.53;5017426;28;45353;-87
2022/12/05 08:53:18;;;;;;;;;31.25;19.25;;;;;3.70;78.63;101709.84;5032772;28;45363;-85
2022/12/05 08:55:47;;;;;;;;;34.00;25.75;;;;;3.73;78.61;101709.03;5002245;28;46395;-86
2022/12/05 08:58:13;;;;;;;;;34.00;24.00;;;;;3.75;78.41;101704.75;5017882;28;45731;-86
2022/12/05 09:00:39;;;;;;;;;28.25;23.75;;;;;3.75;78.18;101715.94;5017472;28;45394;-86
2022/12/05 09:03:04;;;;;;;;;41.75;24.00;;;;;3.77;78.22;101713.38;5034745;28;45308;-86
2022/12/05 09:05:30;;;;;;;;;44.00;23.75;;;;;3.76;78.65;101720.25;5015502;28;66519;-87
2022/12/05 09:07:55;;;;;;;;;24.75;22.25;;;;;3.75;78.31;101721.09;5016992;28;55162;-87
2022/12/05 09:10:21;;;;;;;;;32.25;19.75;;;;;3.80;78.68;101716.00;5001452;28;45437;-86
2022/12/05 09:12:46;;;;;;;;;32.50;25.25;;;;;3.84;78.85;101720.34;4999588;28;59192;-85
2022/12/05 09:15:12;;;;;;;;;30.75;22.00;;;;;3.88;78.52;101722.13;4998743;28;47109;-85
2022/12/05 09:17:38;;;;;;;;;32.75;25.00;;;;;3.93;78.34;101727.34;5028122;28;45601;-86
2022/12/05 09:20:06;;;;;;;;;41.00;25.50;;;;;3.91;78.14;101717.03;5001375;28;45724;-86
2022/12/05 09:22:32;;;;;;;;;32.25;23.00;;;;;3.94;78.62;101724.81;5004578;28;45569;-87
2022/12/05 09:24:59;;;;;;;;;31.00;27.50;;;;;4.00;78.51;101718.88;5013842;28;47944;-87
2022/12/05 09:27:24;;;;;;;;;37.25;20.00;;;;;4.04;77.85;101724.06;5016380;28;45833;-88
2022/12/05 09:29:53;;;;;;;;;42.00;31.75;;;;;4.07;77.66;101729.28;5035635;28;45453;-88
2022/12/05 09:32:24;;;;;;;;;41.75;26.00;;;;;4.14;78.59;101727.66;5034583;28;46978;-88
2022/12/05 09:34:50;;;;;;;;;34.25;24.25;;;;;4.17;78.42;101735.41;5016569;28;47040;-88
2022/12/05 09:37:17;;;;;;;;;31.00;18.75;;;;;4.20;78.35;101738.03;5006141;28;45390;-89
2022/12/05 09:39:43;;;;;;;;;34.00;25.00;;;;;4.27;78.22;101738.97;5003698;28;45293;-87
2022/12/05 09:42:31;;;;;;;;;32.00;24.00;;;;;4.30;77.75;101733.00;5013900;28;45428;-90
2022/12/05 09:45:25;;;;;;;;;32.25;24.50;;;;;4.27;77.20;101741.56;5002699;28;47404;-87
2022/12/05 09:47:52;;;;;;;;;39.50;23.50;;;;;4.21;77.24;101742.34;4999538;28;45822;-89
2022/12/05 09:50:21;;;;;;;;;40.50;24.25;;;;;4.19;77.13;101741.44;5020097;28;46177;-89
2022/12/05 09:52:47;;;;;;;;;34.50;24.75;;;;;4.17;77.57;101748.28;4988364;28;45652;-89
2022/12/05 09:55:20;;;;;;;;;29.00;18.00;;;;;4.20;77.90;101743.19;5033433;28;45633;-89
2022/12/05 09:57:51;;;;;;;;;36.50;22.00;;;;;4.25;77.56;101749.28;5012287;28;45973;-89
2022/12/05 10:00:16;;;;;;;;;30.00;21.50;;;;;4.26;77.23;101753.56;5035079;28;45306;-89
2022/12/05 10:03:03;;;;;;;;;31.50;25.00;;;;;4.28;77.72;101751.03;4998267;28;45569;-88
2022/12/05 10:06:00;;;;;;;;;36.50;23.50;;;;;4.29;77.07;101752.78;5034586;28;45324;-87
2022/12/05 10:08:50;;;;;;;;;45.50;28.75;;;;;4.31;77.77;101751.09;5032848;28;45366;-88
2022/12/05 10:11:26;;;;;;;;;39.00;26.00;;;;;4.34;77.34;101753.69;5006409;28;45423;-89
2022/12/05 10:14:07;;;;;;;;;36.25;22.50;;;;;4.41;77.45;101760.66;5019594;28;45709;-90
2022/12/05 10:16:38;;;;;;;;;38.00;27.25;;;;;4.43;77.71;101755.50;5020454;28;47509;-89
2022/12/05 10:19:10;;;;;;;;;33.00;18.75;;;;;4.51;77.51;101763.34;5020538;28;45451;-89
2022/12/05 10:21:43;;;;;;;;;35.75;26.75;;;;;4.55;76.75;101757.38;5010513;28;46486;-89
2022/12/05 10:24:22;;;;;;;;;37.50;23.50;;;;;4.58;77.06;101758.28;5020544;28;45836;-88
2022/12/05 10:26:57;;;;;;;;;36.25;27.50;;;;;4.64;77.06;101760.94;5003026;28;45412;-89
2022/12/05 10:29:44;;;;;;;;;38.25;27.75;;;;;4.68;76.48;101763.53;5004853;28;46006;-89
2022/12/05 10:32:20;;;;;;;;;43.75;24.50;;;;;4.65;76.97;101754.06;5003621;28;45290;-90
2022/12/05 10:34:46;;;;;;;;;24.00;19.00;;;;;4.68;76.77;101759.28;5004071;28;45505;-88
2022/12/05 10:37:16;;;;;;;;;39.00;23.75;;;;;4.70;76.58;101762.72;5033042;28;50832;-89
2022/12/05 10:39:42;;;;;;;;;41.25;29.00;;;;;4.67;76.51;101762.69;4999341;28;45655;-90
2022/12/05 10:42:37;;;;;;;;;39.75;25.25;;;;;4.67;76.65;101752.38;5010827;28;45511;-91
2022/12/05 10:45:08;;;;;;;;;34.00;25.75;;;;;4.71;76.58;101753.28;4993013;28;45737;-89
2022/12/05 10:47:34;;;;;;;;;51.00;31.75;;;;;4.69;76.06;101755.81;5010386;28;47292;-90
2022/12/05 10:50:25;;;;;;;;;44.00;35.50;;;;;4.67;75.62;101751.50;5019587;28;45400;-90
2022/12/05 10:52:55;;;;;;;;;57.25;39.50;;;;;4.65;76.04;101747.19;4958079;28;45422;-88
2022/12/05 10:55:24;;;;;;;;;62.75;45.75;;;;;4.67;76.00;101754.94;4963570;28;45557;-88
2022/12/05 10:58:12;;;;;;;;;80.75;56.25;;;;;4.63;75.98;101754.03;4959399;28;46190;-87
2022/12/05 11:00:43;;;;;;;;;37.00;27.75;;;;;4.54;75.57;101760.81;4960181;28;45395;-90
2022/12/05 11:03:22;;;;;;;;;42.00;31.75;;;;;4.44;75.68;101763.28;4940998;28;45415;-87
2022/12/05 11:05:54;;;;;;;;;32.50;29.75;;;;;4.39;76.02;101756.31;4963712;28;45463;-87
2022/12/05 11:08:37;;;;;;;;;41.75;29.50;;;;;4.38;76.12;101762.31;4955627;28;48457;-87
2022/12/05 11:11:13;;;;;;;;;35.00;22.25;;;;;4.34;76.08;101763.97;4957529;28;46152;-88
2022/12/05 11:14:02;;;;;;;;;43.75;31.00;;;;;4.38;76.52;101765.78;4966817;28;45350;-86
2022/12/05 11:16:31;;;;;;;;;28.75;24.75;;;;;4.40;76.50;101766.66;4968581;28;45412;-89
2022/12/05 11:19:22;;;;;;;;;42.00;28.75;;;;;4.39;75.94;101764.06;4956610;28;46225;-89
2022/12/05 11:21:51;;;;;;;;;39.25;32.00;;;;;4.33;76.04;101769.13;4950578;28;45407;-88
2022/12/05 11:24:22;;;;;;;;;40.75;27.25;;;;;4.23;75.76;101761.28;4958408;28;45333;-88
2022/12/05 11:26:48;;;;;;;;;36.50;30.50;;;;;4.20;75.93;101768.97;4974847;28;45434;-89
2022/12/05 11:29:36;;;;;;;;;39.25;29.00;;;;;4.19;76.02;101772.38;4970245;28;48340;-89
2022/12/05 11:32:20;;;;;;;;;41.75;25.75;;;;;4.22;76.71;101767.28;5007501;28;45460;-88
2022/12/05 11:35:07;;;;;;;;;46.50;29.75;;;;;4.32;76.54;101769.97;5034973;28;45437;-89
2022/12/05 11:37:53;;;;;;;;;58.50;34.50;;;;;4.35;76.50;101770.03;5035488;28;45555;-87
2022/12/05 11:40:33;;;;;;;;;46.25;30.25;;;;;4.39;76.58;101772.66;5017288;28;47588;-89